sensor_id;sensor_type;location;lat;lon;timestamp;temperature;humidity
53422;DHT22;39319;52.944;5.928;2023-05-16T00:00:31;12.30;91.10
53422;DHT22;39319;52.944;5.928;2023-05-16T00:03:00;12.30;91.30
53422;DHT22;39319;52.944;5.928;2023-05-16T00:05:27;12.30;91.40
53422;DHT22;39319;52.944;5.928;2023-05-16T00:07:53;12.30;91.30
53422;DHT22;39319;52.944;5.928;2023-05-16T00:10:18;12.20;91.30
53422;DHT22;39319;52.944;5.928;2023-05-16T00:12:44;12.40;91.30
53422;DHT22;39319;52.944;5.928;2023-05-16T00:15:10;12.10;91.30
53422;DHT22;39319;52.944;5.928;2023-05-16T00:17:38;12.20;91.10
53422;DHT22;39319;52.944;5.928;2023-05-16T00:20:05;12.10;91.10
53422;DHT22;39319;52.944;5.928;2023-05-16T00:22:36;12.10;91.20
53422;DHT22;39319;52.944;5.928;2023-05-16T00:25:02;12.20;91.20
53422;DHT22;39319;52.944;5.928;2023-05-16T00:27:28;12.00;91.10
53422;DHT22;39319;52.944;5.928;2023-05-16T00:29:54;12.10;91.10
53422;DHT22;39319;52.944;5.928;2023-05-16T00:32:20;12.00;91.20
53422;DHT22;39319;52.944;5.928;2023-05-16T00:34:46;12.10;91.20
53422;DHT22;39319;52.944;5.928;2023-05-16T00:37:12;12.00;91.30
53422;DHT22;39319;52.944;5.928;2023-05-16T00:39:38;11.90;91.40
53422;DHT22;39319;52.944;5.928;2023-05-16T00:42:04;11.90;91.40
53422;DHT22;39319;52.944;5.928;2023-05-16T00:44:29;11.90;91.30
53422;DHT22;39319;52.944;5.928;2023-05-16T00:46:56;11.90;91.30
53422;DHT22;39319;52.944;5.928;2023-05-16T00:49:23;11.90;91.30
53422;DHT22;39319;52.944;5.928;2023-05-16T00:51:48;11.90;91.30
53422;DHT22;39319;52.944;5.928;2023-05-16T00:54:14;11.80;91.30
53422;DHT22;39319;52.944;5.928;2023-05-16T00:56:40;11.90;91.30
53422;DHT22;39319;52.944;5.928;2023-05-16T00:59:06;11.90;91.30
53422;DHT22;39319;52.944;5.928;2023-05-16T01:01:31;11.90;91.30
53422;DHT22;39319;52.944;5.928;2023-05-16T01:03:59;11.70;91.20
53422;DHT22;39319;52.944;5.928;2023-05-16T01:06:25;11.70;91.20
53422;DHT22;39319;52.944;5.928;2023-05-16T01:08:51;11.80;91.20
53422;DHT22;39319;52.944;5.928;2023-05-16T01:17:19;11.70;91.30
53422;DHT22;39319;52.944;5.928;2023-05-16T01:20:08;11.70;91.30
53422;DHT22;39319;52.944;5.928;2023-05-16T01:28:15;11.70;91.30
53422;DHT22;39319;52.944;5.928;2023-05-16T01:30:43;11.80;91.40
53422;DHT22;39319;52.944;5.928;2023-05-16T01:33:09;11.70;91.50
53422;DHT22;39319;52.944;5.928;2023-05-16T01:35:42;11.70;91.40
53422;DHT22;39319;52.944;5.928;2023-05-16T01:38:27;11.70;91.30
53422;DHT22;39319;52.944;5.928;2023-05-16T01:43:32;11.60;91.50
53422;DHT22;39319;52.944;5.928;2023-05-16T01:46:18;11.60;91.50
53422;DHT22;39319;52.944;5.928;2023-05-16T01:49:00;11.60;91.50
53422;DHT22;39319;52.944;5.928;2023-05-16T01:51:31;11.40;91.50
53422;DHT22;39319;52.944;5.928;2023-05-16T01:54:01;11.60;91.50
53422;DHT22;39319;52.944;5.928;2023-05-16T01:56:30;11.50;91.60
53422;DHT22;39319;52.944;5.928;2023-05-16T01:58:57;11.60;91.70
53422;DHT22;39319;52.944;5.928;2023-05-16T02:01:24;11.50;91.60
53422;DHT22;39319;52.944;5.928;2023-05-16T02:03:49;11.50;91.70
53422;DHT22;39319;52.944;5.928;2023-05-16T02:06:16;11.40;91.60
53422;DHT22;39319;52.944;5.928;2023-05-16T02:08:41;11.40;91.70
53422;DHT22;39319;52.944;5.928;2023-05-16T02:11:07;11.40;91.80
53422;DHT22;39319;52.944;5.928;2023-05-16T02:13:33;11.30;91.70
53422;DHT22;39319;52.944;5.928;2023-05-16T02:15:59;11.40;91.80
53422;DHT22;39319;52.944;5.928;2023-05-16T02:18:25;11.40;91.80
53422;DHT22;39319;52.944;5.928;2023-05-16T02:20:52;11.40;91.80
53422;DHT22;39319;52.944;5.928;2023-05-16T02:23:18;11.40;91.80
53422;DHT22;39319;52.944;5.928;2023-05-16T02:25:44;11.30;91.70
53422;DHT22;39319;52.944;5.928;2023-05-16T02:28:10;11.30;91.80
53422;DHT22;39319;52.944;5.928;2023-05-16T02:30:36;11.30;91.80
53422;DHT22;39319;52.944;5.928;2023-05-16T02:33:01;11.30;91.90
53422;DHT22;39319;52.944;5.928;2023-05-16T02:35:27;11.30;92.00
53422;DHT22;39319;52.944;5.928;2023-05-16T02:37:53;11.20;92.00
53422;DHT22;39319;52.944;5.928;2023-05-16T02:40:19;11.30;92.00
53422;DHT22;39319;52.944;5.928;2023-05-16T02:42:45;11.30;91.90
53422;DHT22;39319;52.944;5.928;2023-05-16T02:45:11;11.30;91.80
53422;DHT22;39319;52.944;5.928;2023-05-16T02:47:37;11.30;91.90
53422;DHT22;39319;52.944;5.928;2023-05-16T02:50:02;11.20;91.80
53422;DHT22;39319;52.944;5.928;2023-05-16T02:52:30;11.30;91.90
53422;DHT22;39319;52.944;5.928;2023-05-16T02:54:56;11.30;91.80
53422;DHT22;39319;52.944;5.928;2023-05-16T02:57:22;11.20;91.80
53422;DHT22;39319;52.944;5.928;2023-05-16T02:59:47;11.30;91.80
53422;DHT22;39319;52.944;5.928;2023-05-16T03:02:13;11.30;91.70
53422;DHT22;39319;52.944;5.928;2023-05-16T03:04:39;11.30;91.70
53422;DHT22;39319;52.944;5.928;2023-05-16T03:07:05;11.20;91.70
53422;DHT22;39319;52.944;5.928;2023-05-16T03:09:30;11.20;91.70
53422;DHT22;39319;52.944;5.928;2023-05-16T03:11:56;11.20;91.60
53422;DHT22;39319;52.944;5.928;2023-05-16T03:14:22;11.10;91.60
53422;DHT22;39319;52.944;5.928;2023-05-16T03:16:50;11.20;91.70
53422;DHT22;39319;52.944;5.928;2023-05-16T03:19:16;11.20;91.50
53422;DHT22;39319;52.944;5.928;2023-05-16T03:21:42;11.10;91.60
53422;DHT22;39319;52.944;5.928;2023-05-16T03:24:07;11.10;91.50
53422;DHT22;39319;52.944;5.928;2023-05-16T03:26:33;11.20;91.50
53422;DHT22;39319;52.944;5.928;2023-05-16T03:28:59;11.10;91.40
53422;DHT22;39319;52.944;5.928;2023-05-16T03:31:24;11.10;91.50
53422;DHT22;39319;52.944;5.928;2023-05-16T03:33:50;11.10;91.40
53422;DHT22;39319;52.944;5.928;2023-05-16T03:36:16;11.10;91.60
53422;DHT22;39319;52.944;5.928;2023-05-16T03:38:42;11.10;91.70
53422;DHT22;39319;52.944;5.928;2023-05-16T03:41:07;11.00;91.70
53422;DHT22;39319;52.944;5.928;2023-05-16T03:43:33;11.10;91.70
53422;DHT22;39319;52.944;5.928;2023-05-16T03:46:00;10.90;91.80
53422;DHT22;39319;52.944;5.928;2023-05-16T03:48:26;11.10;91.80
53422;DHT22;39319;52.944;5.928;2023-05-16T03:50:52;10.90;91.90
53422;DHT22;39319;52.944;5.928;2023-05-16T03:53:17;10.80;91.90
53422;DHT22;39319;52.944;5.928;2023-05-16T03:55:43;11.00;92.00
53422;DHT22;39319;52.944;5.928;2023-05-16T03:58:09;10.90;92.10
53422;DHT22;39319;52.944;5.928;2023-05-16T04:00:34;10.90;92.20
53422;DHT22;39319;52.944;5.928;2023-05-16T04:03:01;11.00;92.20
53422;DHT22;39319;52.944;5.928;2023-05-16T04:05:27;11.00;92.40
53422;DHT22;39319;52.944;5.928;2023-05-16T04:07:53;10.90;92.20
53422;DHT22;39319;52.944;5.928;2023-05-16T04:10:19;10.70;92.40
53422;DHT22;39319;52.944;5.928;2023-05-16T04:12:45;10.70;92.40
53422;DHT22;39319;52.944;5.928;2023-05-16T04:15:11;8.90;91.90
53422;DHT22;39319;52.944;5.928;2023-05-16T04:17:36;10.70;92.40
53422;DHT22;39319;52.944;5.928;2023-05-16T04:20:02;10.80;92.50
53422;DHT22;39319;52.944;5.928;2023-05-16T04:22:29;10.90;92.50
53422;DHT22;39319;52.944;5.928;2023-05-16T04:24:55;11.00;92.60
53422;DHT22;39319;52.944;5.928;2023-05-16T04:27:21;10.90;92.50
53422;DHT22;39319;52.944;5.928;2023-05-16T04:29:47;10.90;92.60
53422;DHT22;39319;52.944;5.928;2023-05-16T04:32:13;11.00;92.60
53422;DHT22;39319;52.944;5.928;2023-05-16T04:34:40;10.90;92.60
53422;DHT22;39319;52.944;5.928;2023-05-16T04:37:06;10.90;92.50
53422;DHT22;39319;52.944;5.928;2023-05-16T04:39:33;11.00;92.70
53422;DHT22;39319;52.944;5.928;2023-05-16T04:41:59;11.00;92.70
53422;DHT22;39319;52.944;5.928;2023-05-16T04:44:25;11.10;92.70
53422;DHT22;39319;52.944;5.928;2023-05-16T04:46:51;11.00;92.90
53422;DHT22;39319;52.944;5.928;2023-05-16T04:49:18;11.00;92.70
53422;DHT22;39319;52.944;5.928;2023-05-16T04:51:44;11.10;92.80
53422;DHT22;39319;52.944;5.928;2023-05-16T04:54:10;11.10;92.80
53422;DHT22;39319;52.944;5.928;2023-05-16T04:56:36;11.20;92.60
53422;DHT22;39319;52.944;5.928;2023-05-16T04:59:01;11.20;92.70
53422;DHT22;39319;52.944;5.928;2023-05-16T05:01:29;11.20;93.00
53422;DHT22;39319;52.944;5.928;2023-05-16T05:03:54;11.20;92.80
53422;DHT22;39319;52.944;5.928;2023-05-16T05:06:20;11.20;92.80
53422;DHT22;39319;52.944;5.928;2023-05-16T05:08:46;11.20;92.80
53422;DHT22;39319;52.944;5.928;2023-05-16T05:11:12;11.30;92.90
53422;DHT22;39319;52.944;5.928;2023-05-16T05:13:40;11.30;93.00
53422;DHT22;39319;52.944;5.928;2023-05-16T05:16:06;11.40;92.80
53422;DHT22;39319;52.944;5.928;2023-05-16T05:18:31;11.30;92.80
53422;DHT22;39319;52.944;5.928;2023-05-16T05:20:58;11.40;92.70
53422;DHT22;39319;52.944;5.928;2023-05-16T05:23:24;11.40;92.80
53422;DHT22;39319;52.944;5.928;2023-05-16T05:25:50;11.50;92.80
53422;DHT22;39319;52.944;5.928;2023-05-16T05:28:16;11.60;92.90
53422;DHT22;39319;52.944;5.928;2023-05-16T05:30:41;11.40;92.90
53422;DHT22;39319;52.944;5.928;2023-05-16T05:33:07;11.60;92.70
53422;DHT22;39319;52.944;5.928;2023-05-16T05:35:33;11.60;92.80
53422;DHT22;39319;52.944;5.928;2023-05-16T05:37:58;11.60;92.80
53422;DHT22;39319;52.944;5.928;2023-05-16T05:40:24;11.50;92.50
53422;DHT22;39319;52.944;5.928;2023-05-16T05:42:50;11.70;92.70
53422;DHT22;39319;52.944;5.928;2023-05-16T05:45:16;11.70;92.80
53422;DHT22;39319;52.944;5.928;2023-05-16T05:47:42;11.90;92.90
53422;DHT22;39319;52.944;5.928;2023-05-16T05:50:09;11.70;92.80
53422;DHT22;39319;52.944;5.928;2023-05-16T05:52:36;11.90;92.90
53422;DHT22;39319;52.944;5.928;2023-05-16T05:55:02;11.90;93.20
53422;DHT22;39319;52.944;5.928;2023-05-16T05:57:31;12.00;92.50
53422;DHT22;39319;52.944;5.928;2023-05-16T05:59:57;12.00;92.80
53422;DHT22;39319;52.944;5.928;2023-05-16T06:02:22;12.10;92.50
53422;DHT22;39319;52.944;5.928;2023-05-16T06:04:48;12.00;93.00
53422;DHT22;39319;52.944;5.928;2023-05-16T06:07:14;12.20;93.00
53422;DHT22;39319;52.944;5.928;2023-05-16T06:09:41;12.20;93.10
53422;DHT22;39319;52.944;5.928;2023-05-16T06:12:08;12.20;93.20
53422;DHT22;39319;52.944;5.928;2023-05-16T06:14:34;12.30;93.20
53422;DHT22;39319;52.944;5.928;2023-05-16T06:16:59;12.30;92.80
53422;DHT22;39319;52.944;5.928;2023-05-16T06:19:27;12.30;92.90
53422;DHT22;39319;52.944;5.928;2023-05-16T06:21:55;12.40;92.80
53422;DHT22;39319;52.944;5.928;2023-05-16T06:24:21;12.50;92.40
53422;DHT22;39319;52.944;5.928;2023-05-16T06:26:47;12.50;92.40
53422;DHT22;39319;52.944;5.928;2023-05-16T06:29:15;12.20;92.60
53422;DHT22;39319;52.944;5.928;2023-05-16T06:31:41;12.30;92.40
53422;DHT22;39319;52.944;5.928;2023-05-16T06:34:07;12.30;92.50
53422;DHT22;39319;52.944;5.928;2023-05-16T06:36:33;12.40;92.40
53422;DHT22;39319;52.944;5.928;2023-05-16T06:38:58;12.40;92.10
53422;DHT22;39319;52.944;5.928;2023-05-16T06:41:24;12.40;92.10
53422;DHT22;39319;52.944;5.928;2023-05-16T06:43:51;12.50;91.90
53422;DHT22;39319;52.944;5.928;2023-05-16T06:46:16;12.60;91.60
53422;DHT22;39319;52.944;5.928;2023-05-16T06:48:42;12.60;91.50
53422;DHT22;39319;52.944;5.928;2023-05-16T06:51:08;12.60;91.30
53422;DHT22;39319;52.944;5.928;2023-05-16T06:53:34;12.60;91.40
53422;DHT22;39319;52.944;5.928;2023-05-16T06:56:01;12.60;91.40
53422;DHT22;39319;52.944;5.928;2023-05-16T06:58:27;13.00;91.50
53422;DHT22;39319;52.944;5.928;2023-05-16T07:00:52;12.90;91.00
53422;DHT22;39319;52.944;5.928;2023-05-16T07:03:20;12.90;91.20
53422;DHT22;39319;52.944;5.928;2023-05-16T07:05:46;13.00;91.30
53422;DHT22;39319;52.944;5.928;2023-05-16T07:08:12;13.00;90.80
53422;DHT22;39319;52.944;5.928;2023-05-16T07:10:38;13.10;90.40
53422;DHT22;39319;52.944;5.928;2023-05-16T07:13:04;13.20;90.40
53422;DHT22;39319;52.944;5.928;2023-05-16T07:15:30;13.10;90.70
53422;DHT22;39319;52.944;5.928;2023-05-16T07:17:56;15.30;91.00
53422;DHT22;39319;52.944;5.928;2023-05-16T07:20:22;13.40;90.00
53422;DHT22;39319;52.944;5.928;2023-05-16T07:22:48;13.20;90.00
53422;DHT22;39319;52.944;5.928;2023-05-16T07:25:14;13.40;90.20
53422;DHT22;39319;52.944;5.928;2023-05-16T07:27:41;13.40;89.80
53422;DHT22;39319;52.944;5.928;2023-05-16T07:30:10;13.20;90.00
53422;DHT22;39319;52.944;5.928;2023-05-16T07:32:36;13.10;89.40
53422;DHT22;39319;52.944;5.928;2023-05-16T07:35:03;13.10;88.80
53422;DHT22;39319;52.944;5.928;2023-05-16T07:37:29;13.10;89.20
53422;DHT22;39319;52.944;5.928;2023-05-16T07:39:55;13.30;89.50
53422;DHT22;39319;52.944;5.928;2023-05-16T07:42:20;13.30;87.80
53422;DHT22;39319;52.944;5.928;2023-05-16T07:44:46;13.40;86.70
53422;DHT22;39319;52.944;5.928;2023-05-16T07:47:14;13.20;86.40
53422;DHT22;39319;52.944;5.928;2023-05-16T07:49:40;13.30;86.40
53422;DHT22;39319;52.944;5.928;2023-05-16T07:52:06;13.40;86.70
53422;DHT22;39319;52.944;5.928;2023-05-16T07:54:33;13.60;85.90
53422;DHT22;39319;52.944;5.928;2023-05-16T07:56:59;13.50;84.80
53422;DHT22;39319;52.944;5.928;2023-05-16T07:59:25;13.50;83.20
53422;DHT22;39319;52.944;5.928;2023-05-16T08:01:51;13.50;82.00
53422;DHT22;39319;52.944;5.928;2023-05-16T08:04:17;13.60;83.40
53422;DHT22;39319;52.944;5.928;2023-05-16T08:06:43;13.40;83.90
53422;DHT22;39319;52.944;5.928;2023-05-16T08:09:09;13.20;86.10
53422;DHT22;39319;52.944;5.928;2023-05-16T08:11:35;13.10;85.80
53422;DHT22;39319;52.944;5.928;2023-05-16T08:14:00;13.20;86.40
53422;DHT22;39319;52.944;5.928;2023-05-16T08:16:26;13.20;87.60
53422;DHT22;39319;52.944;5.928;2023-05-16T08:18:52;13.30;87.90
53422;DHT22;39319;52.944;5.928;2023-05-16T08:21:17;13.60;88.50
53422;DHT22;39319;52.944;5.928;2023-05-16T08:23:45;13.70;88.30
53422;DHT22;39319;52.944;5.928;2023-05-16T08:26:11;13.80;87.30
53422;DHT22;39319;52.944;5.928;2023-05-16T08:28:37;13.90;87.20
53422;DHT22;39319;52.944;5.928;2023-05-16T08:31:02;14.10;87.10
53422;DHT22;39319;52.944;5.928;2023-05-16T08:33:28;14.10;89.50
53422;DHT22;39319;52.944;5.928;2023-05-16T08:35:54;14.50;89.30
53422;DHT22;39319;52.944;5.928;2023-05-16T08:38:20;14.50;89.00
53422;DHT22;39319;52.944;5.928;2023-05-16T08:40:45;14.30;88.10
53422;DHT22;39319;52.944;5.928;2023-05-16T08:43:12;14.40;88.90
53422;DHT22;39319;52.944;5.928;2023-05-16T08:45:39;14.20;89.30
53422;DHT22;39319;52.944;5.928;2023-05-16T08:48:06;14.20;89.20
53422;DHT22;39319;52.944;5.928;2023-05-16T08:50:32;13.90;89.70
53422;DHT22;39319;52.944;5.928;2023-05-16T08:53:07;14.20;90.40
53422;DHT22;39319;52.944;5.928;2023-05-16T08:55:35;14.20;89.20
53422;DHT22;39319;52.944;5.928;2023-05-16T08:58:01;14.10;89.80
53422;DHT22;39319;52.944;5.928;2023-05-16T09:00:28;14.30;90.30
53422;DHT22;39319;52.944;5.928;2023-05-16T09:02:53;14.30;89.70
53422;DHT22;39319;52.944;5.928;2023-05-16T09:05:21;14.40;89.40
53422;DHT22;39319;52.944;5.928;2023-05-16T09:07:50;14.30;88.40
53422;DHT22;39319;52.944;5.928;2023-05-16T09:10:16;14.30;87.50
53422;DHT22;39319;52.944;5.928;2023-05-16T09:12:42;14.50;87.10
53422;DHT22;39319;52.944;5.928;2023-05-16T09:15:09;14.70;87.00
53422;DHT22;39319;52.944;5.928;2023-05-16T09:17:43;14.90;86.50
53422;DHT22;39319;52.944;5.928;2023-05-16T09:20:10;15.10;87.00
53422;DHT22;39319;52.944;5.928;2023-05-16T09:22:37;15.30;85.70
53422;DHT22;39319;52.944;5.928;2023-05-16T09:25:03;15.50;86.80
53422;DHT22;39319;52.944;5.928;2023-05-16T09:27:30;15.70;85.10
53422;DHT22;39319;52.944;5.928;2023-05-16T09:29:57;15.60;85.20
53422;DHT22;39319;52.944;5.928;2023-05-16T09:32:24;15.50;85.80
53422;DHT22;39319;52.944;5.928;2023-05-16T09:34:52;15.60;85.80
53422;DHT22;39319;52.944;5.928;2023-05-16T09:37:18;15.40;86.20
53422;DHT22;39319;52.944;5.928;2023-05-16T09:39:52;15.50;87.20
53422;DHT22;39319;52.944;5.928;2023-05-16T09:42:20;15.40;88.80
53422;DHT22;39319;52.944;5.928;2023-05-16T09:44:52;15.40;86.70
53422;DHT22;39319;52.944;5.928;2023-05-16T09:47:19;15.40;87.20
53422;DHT22;39319;52.944;5.928;2023-05-16T09:49:46;15.50;87.40
53422;DHT22;39319;52.944;5.928;2023-05-16T09:52:13;15.50;86.10
53422;DHT22;39319;52.944;5.928;2023-05-16T09:54:40;15.40;86.20
53422;DHT22;39319;52.944;5.928;2023-05-16T09:57:06;15.40;85.70
53422;DHT22;39319;52.944;5.928;2023-05-16T09:59:38;15.70;85.00
53422;DHT22;39319;52.944;5.928;2023-05-16T10:02:07;15.80;86.80
53422;DHT22;39319;52.944;5.928;2023-05-16T10:04:34;16.10;86.70
53422;DHT22;39319;52.944;5.928;2023-05-16T10:07:03;16.20;85.70
53422;DHT22;39319;52.944;5.928;2023-05-16T10:09:34;16.10;83.30
53422;DHT22;39319;52.944;5.928;2023-05-16T10:12:01;15.90;82.30
53422;DHT22;39319;52.944;5.928;2023-05-16T10:14:33;15.90;85.40
53422;DHT22;39319;52.944;5.928;2023-05-16T10:16:59;16.10;87.70
53422;DHT22;39319;52.944;5.928;2023-05-16T10:19:25;16.20;87.80
53422;DHT22;39319;52.944;5.928;2023-05-16T10:21:57;16.40;86.80
53422;DHT22;39319;52.944;5.928;2023-05-16T10:24:30;16.10;87.70
53422;DHT22;39319;52.944;5.928;2023-05-16T10:26:56;16.30;88.00
53422;DHT22;39319;52.944;5.928;2023-05-16T10:29:23;16.00;88.50
53422;DHT22;39319;52.944;5.928;2023-05-16T10:31:49;16.30;89.00
53422;DHT22;39319;52.944;5.928;2023-05-16T10:34:15;16.60;89.10
53422;DHT22;39319;52.944;5.928;2023-05-16T10:36:43;17.00;91.20
53422;DHT22;39319;52.944;5.928;2023-05-16T10:39:10;17.40;89.50
53422;DHT22;39319;52.944;5.928;2023-05-16T10:41:37;17.60;88.10
53422;DHT22;39319;52.944;5.928;2023-05-16T10:44:03;17.40;88.00
53422;DHT22;39319;52.944;5.928;2023-05-16T10:46:30;17.40;88.80
53422;DHT22;39319;52.944;5.928;2023-05-16T10:48:56;17.60;90.00
53422;DHT22;39319;52.944;5.928;2023-05-16T10:54:03;17.80;87.20
53422;DHT22;39319;52.944;5.928;2023-05-16T10:56:32;17.60;86.80
53422;DHT22;39319;52.944;5.928;2023-05-16T10:58:57;17.20;89.90
53422;DHT22;39319;52.944;5.928;2023-05-16T11:01:25;17.20;90.20
53422;DHT22;39319;52.944;5.928;2023-05-16T11:06:34;17.10;91.10
53422;DHT22;39319;52.944;5.928;2023-05-16T11:17:15;17.30;89.90
53422;DHT22;39319;52.944;5.928;2023-05-16T11:19:54;17.30;90.80
53422;DHT22;39319;52.944;5.928;2023-05-16T11:22:23;17.30;90.70
53422;DHT22;39319;52.944;5.928;2023-05-16T11:25:04;17.50;91.70
53422;DHT22;39319;52.944;5.928;2023-05-16T11:27:45;17.90;91.10
53422;DHT22;39319;52.944;5.928;2023-05-16T11:30:15;17.60;90.50
53422;DHT22;39319;52.944;5.928;2023-05-16T11:32:43;17.70;89.30
53422;DHT22;39319;52.944;5.928;2023-05-16T11:35:11;17.60;90.00
53422;DHT22;39319;52.944;5.928;2023-05-16T11:37:37;17.90;90.80
53422;DHT22;39319;52.944;5.928;2023-05-16T11:40:07;17.60;90.10
53422;DHT22;39319;52.944;5.928;2023-05-16T11:42:39;18.00;90.30
53422;DHT22;39319;52.944;5.928;2023-05-16T11:45:11;17.90;90.40
53422;DHT22;39319;52.944;5.928;2023-05-16T11:47:40;17.90;90.50
53422;DHT22;39319;52.944;5.928;2023-05-16T11:50:11;18.00;90.80
53422;DHT22;39319;52.944;5.928;2023-05-16T11:52:37;18.20;90.30
53422;DHT22;39319;52.944;5.928;2023-05-16T11:55:04;18.00;90.90
53422;DHT22;39319;52.944;5.928;2023-05-16T11:57:32;18.00;90.70
53422;DHT22;39319;52.944;5.928;2023-05-16T12:00:04;17.70;91.40
53422;DHT22;39319;52.944;5.928;2023-05-16T12:02:38;17.70;91.50
53422;DHT22;39319;52.944;5.928;2023-05-16T12:05:08;17.60;90.90
53422;DHT22;39319;52.944;5.928;2023-05-16T12:07:34;17.50;90.50
53422;DHT22;39319;52.944;5.928;2023-05-16T12:10:08;17.50;91.20
53422;DHT22;39319;52.944;5.928;2023-05-16T12:12:35;17.70;91.20
53422;DHT22;39319;52.944;5.928;2023-05-16T12:15:05;18.00;90.70
53422;DHT22;39319;52.944;5.928;2023-05-16T12:17:33;18.30;89.60
53422;DHT22;39319;52.944;5.928;2023-05-16T12:19:59;18.30;88.10
53422;DHT22;39319;52.944;5.928;2023-05-16T12:22:25;18.10;87.70
53422;DHT22;39319;52.944;5.928;2023-05-16T12:24:51;18.20;87.30
53422;DHT22;39319;52.944;5.928;2023-05-16T12:27:26;18.20;88.60
53422;DHT22;39319;52.944;5.928;2023-05-16T12:29:52;18.40;88.80
53422;DHT22;39319;52.944;5.928;2023-05-16T12:32:19;18.30;87.40
53422;DHT22;39319;52.944;5.928;2023-05-16T12:34:52;18.70;88.20
53422;DHT22;39319;52.944;5.928;2023-05-16T12:37:19;18.70;87.50
53422;DHT22;39319;52.944;5.928;2023-05-16T12:39:46;18.60;89.10
53422;DHT22;39319;52.944;5.928;2023-05-16T12:42:13;18.70;89.50
53422;DHT22;39319;52.944;5.928;2023-05-16T12:44:39;18.50;89.10
53422;DHT22;39319;52.944;5.928;2023-05-16T12:47:12;18.50;87.40
53422;DHT22;39319;52.944;5.928;2023-05-16T12:49:45;18.50;86.30
53422;DHT22;39319;52.944;5.928;2023-05-16T12:52:16;18.60;86.00
53422;DHT22;39319;52.944;5.928;2023-05-16T12:57:10;18.50;71.10
53422;DHT22;39319;52.944;5.928;2023-05-16T12:59:35;18.40;71.40
53422;DHT22;39319;52.944;5.928;2023-05-16T13:02:02;18.30;71.20
53422;DHT22;39319;52.944;5.928;2023-05-16T13:04:28;18.30;71.50
53422;DHT22;39319;52.944;5.928;2023-05-16T13:06:54;18.40;72.10
53422;DHT22;39319;52.944;5.928;2023-05-16T13:09:20;18.30;71.00
53422;DHT22;39319;52.944;5.928;2023-05-16T13:11:48;18.10;71.10
53422;DHT22;39319;52.944;5.928;2023-05-16T13:14:15;18.00;71.90
53422;DHT22;39319;52.944;5.928;2023-05-16T13:16:42;18.00;73.70
53422;DHT22;39319;52.944;5.928;2023-05-16T13:19:09;18.10;75.10
53422;DHT22;39319;52.944;5.928;2023-05-16T13:21:35;18.20;72.90
53422;DHT22;39319;52.944;5.928;2023-05-16T13:24:01;18.20;74.00
53422;DHT22;39319;52.944;5.928;2023-05-16T13:26:29;18.00;72.80
53422;DHT22;39319;52.944;5.928;2023-05-16T13:28:55;17.80;73.00
53422;DHT22;39319;52.944;5.928;2023-05-16T13:31:21;17.60;74.30
53422;DHT22;39319;52.944;5.928;2023-05-16T13:33:47;17.60;76.00
53422;DHT22;39319;52.944;5.928;2023-05-16T13:36:13;17.80;75.30
53422;DHT22;39319;52.944;5.928;2023-05-16T13:38:39;17.90;73.90
53422;DHT22;39319;52.944;5.928;2023-05-16T13:41:05;18.20;73.60
53422;DHT22;39319;52.944;5.928;2023-05-16T13:43:31;18.40;73.40
53422;DHT22;39319;52.944;5.928;2023-05-16T13:45:57;18.60;71.10
53422;DHT22;39319;52.944;5.928;2023-05-16T13:48:23;18.50;71.60
53422;DHT22;39319;52.944;5.928;2023-05-16T13:50:49;18.50;70.60
53422;DHT22;39319;52.944;5.928;2023-05-16T13:53:16;18.30;71.30
53422;DHT22;39319;52.944;5.928;2023-05-16T13:55:42;18.30;71.70
53422;DHT22;39319;52.944;5.928;2023-05-16T13:58:07;18.30;72.00
53422;DHT22;39319;52.944;5.928;2023-05-16T14:00:33;18.30;75.50
53422;DHT22;39319;52.944;5.928;2023-05-16T14:02:59;18.40;74.10
53422;DHT22;39319;52.944;5.928;2023-05-16T14:05:25;18.40;74.80
53422;DHT22;39319;52.944;5.928;2023-05-16T14:07:51;18.40;74.00
53422;DHT22;39319;52.944;5.928;2023-05-16T14:10:16;18.30;73.80
53422;DHT22;39319;52.944;5.928;2023-05-16T14:12:42;18.30;74.70
53422;DHT22;39319;52.944;5.928;2023-05-16T14:15:08;18.30;73.70
53422;DHT22;39319;52.944;5.928;2023-05-16T14:17:34;18.30;73.70
53422;DHT22;39319;52.944;5.928;2023-05-16T14:20:00;18.20;73.10
53422;DHT22;39319;52.944;5.928;2023-05-16T14:22:25;18.20;73.40
53422;DHT22;39319;52.944;5.928;2023-05-16T14:24:52;18.10;74.40
53422;DHT22;39319;52.944;5.928;2023-05-16T14:27:18;18.10;74.30
53422;DHT22;39319;52.944;5.928;2023-05-16T14:29:44;18.10;73.30
53422;DHT22;39319;52.944;5.928;2023-05-16T14:32:10;18.00;74.00
53422;DHT22;39319;52.944;5.928;2023-05-16T14:34:36;17.90;73.10
53422;DHT22;39319;52.944;5.928;2023-05-16T14:37:02;18.00;73.50
53422;DHT22;39319;52.944;5.928;2023-05-16T14:39:27;18.00;71.20
53422;DHT22;39319;52.944;5.928;2023-05-16T14:41:53;17.90;71.60
53422;DHT22;39319;52.944;5.928;2023-05-16T14:44:19;17.80;71.60
53422;DHT22;39319;52.944;5.928;2023-05-16T14:46:46;17.80;72.50
53422;DHT22;39319;52.944;5.928;2023-05-16T14:49:12;17.70;72.20
53422;DHT22;39319;52.944;5.928;2023-05-16T14:51:37;17.70;72.60
53422;DHT22;39319;52.944;5.928;2023-05-16T14:54:03;17.60;72.20
53422;DHT22;39319;52.944;5.928;2023-05-16T14:56:30;17.60;72.00
53422;DHT22;39319;52.944;5.928;2023-05-16T14:58:56;17.50;72.10
53422;DHT22;39319;52.944;5.928;2023-05-16T15:01:22;17.50;72.20
53422;DHT22;39319;52.944;5.928;2023-05-16T15:03:48;17.50;72.00
53422;DHT22;39319;52.944;5.928;2023-05-16T15:06:14;17.30;71.70
53422;DHT22;39319;52.944;5.928;2023-05-16T15:08:40;17.20;72.00
53422;DHT22;39319;52.944;5.928;2023-05-16T15:11:05;17.10;72.90
53422;DHT22;39319;52.944;5.928;2023-05-16T15:13:31;17.10;71.80
53422;DHT22;39319;52.944;5.928;2023-05-16T15:15:57;17.00;72.30
53422;DHT22;39319;52.944;5.928;2023-05-16T15:18:23;17.00;72.80
53422;DHT22;39319;52.944;5.928;2023-05-16T15:20:49;16.90;73.50
53422;DHT22;39319;52.944;5.928;2023-05-16T15:23:16;16.80;74.10
53422;DHT22;39319;52.944;5.928;2023-05-16T15:25:42;16.70;74.20
53422;DHT22;39319;52.944;5.928;2023-05-16T15:28:08;16.70;73.60
53422;DHT22;39319;52.944;5.928;2023-05-16T15:30:36;16.60;74.20
53422;DHT22;39319;52.944;5.928;2023-05-16T15:33:02;16.50;75.10
53422;DHT22;39319;52.944;5.928;2023-05-16T15:35:28;16.50;75.20
53422;DHT22;39319;52.944;5.928;2023-05-16T15:37:54;16.40;75.10
53422;DHT22;39319;52.944;5.928;2023-05-16T15:40:21;16.40;75.90
53422;DHT22;39319;52.944;5.928;2023-05-16T15:42:47;16.40;75.20
53422;DHT22;39319;52.944;5.928;2023-05-16T15:45:13;16.40;75.50
53422;DHT22;39319;52.944;5.928;2023-05-16T15:47:40;16.40;75.60
53422;DHT22;39319;52.944;5.928;2023-05-16T15:50:06;16.40;76.20
53422;DHT22;39319;52.944;5.928;2023-05-16T15:52:32;16.40;75.50
53422;DHT22;39319;52.944;5.928;2023-05-16T15:55:03;16.30;75.60
53422;DHT22;39319;52.944;5.928;2023-05-16T15:57:29;16.40;75.70